KPHT/PHT METAR and TAF weather

Enter ICAO airport designator
Station Type Date Time Source
KPHT METAR 2022/09/26 10:15 UTC NOAA

KPHT 261015Z AUTO 00000KT 10SM CLR 09/09 A2996 RMK A01


Station Type Date Time Source
KPHT Decoded METAR 2022/09/26 10:15 UTC NOAA

Station name not available
Sep 26, 2022 - 06:15 AM EDT / 2022.09.26 1015 UTC
Wind: Calm:0
Visibility: 10 mile(s):0
Sky conditions: clear
Temperature: 48 F (9 C)
Dew Point: 48 F (9 C)
Relative Humidity: 100%
Pressure (altimeter): 29.96 in. Hg (1014 hPa)
ob: KPHT 261015Z AUTO 00000KT 10SM CLR 09/09 A2996 RMK A01
cycle: 10

Station Type Date Time Source
KPHT TAF UTC NOAA

Error!

Example: see airport list